Time;durP1;ratioP1;P1;durP2;ratioP2;P2;SDS_P1;SDS_P2;PMS_P1;PMS_P2;Temp;Humidity;BMP_temperature;BMP_pressure;BME280_temperature;BME280_humidity;BME280_pressure;Samples;Min_cycle;Max_cycle;Signal;HPM_P1;HPM_P2
2022/04/13 00:00:07;;;;;;;5.38;3.03;;;13.80;99.90;;;;;;6209655;23;20346;-54
2022/04/13 00:02:33;;;;;;;3.40;2.90;;;13.80;99.90;;;;;;6209598;23;20391;-57
2022/04/13 00:04:58;;;;;;;4.13;2.80;;;13.70;99.90;;;;;;6210767;23;20398;-58
2022/04/13 00:07:24;;;;;;;4.05;2.83;;;13.70;99.90;;;;;;6210887;23;20340;-56
2022/04/13 00:09:50;;;;;;;6.45;3.20;;;13.70;99.90;;;;;;6212384;23;20367;-58
2022/04/13 00:12:15;;;;;;;4.25;2.83;;;13.70;99.90;;;;;;6213771;23;20435;-56
2022/04/13 00:14:41;;;;;;;5.37;3.03;;;13.70;99.90;;;;;;6213419;23;20352;-56
2022/04/13 00:17:08;;;;;;;5.23;3.20;;;13.60;99.90;;;;;;6212617;23;20379;-59
2022/04/13 00:19:33;;;;;;;3.80;3.03;;;13.60;99.90;;;;;;6210222;23;20854;-58
2022/04/13 00:21:59;;;;;;;4.60;3.07;;;13.60;99.90;;;;;;6210011;23;20407;-58
2022/04/13 00:24:25;;;;;;;4.47;3.03;;;13.50;99.90;;;;;;6207924;23;20626;-56
2022/04/13 00:26:51;;;;;;;6.85;3.17;;;13.50;99.90;;;;;;6206961;23;20819;-57
2022/04/13 00:29:17;;;;;;;4.07;2.90;;;13.50;99.90;;;;;;6205816;23;20805;-58
2022/04/13 00:31:42;;;;;;;4.97;3.00;;;13.40;99.90;;;;;;6206635;23;20347;-57
2022/04/13 00:34:07;;;;;;;4.45;2.88;;;13.40;99.90;;;;;;6208939;23;20446;-57
2022/04/13 00:36:33;;;;;;;3.97;2.80;;;13.40;99.90;;;;;;6211513;23;20684;-58
2022/04/13 00:38:59;;;;;;;4.95;3.00;;;13.30;99.90;;;;;;6210169;23;20789;-56
2022/04/13 00:41:24;;;;;;;4.93;3.25;;;13.30;99.90;;;;;;6209930;23;20376;-58
2022/04/13 00:44:06;;;;;;;6.90;3.50;;;13.20;99.90;;;;;;6213366;23;20343;-58
2022/04/13 00:46:32;;;;;;;4.50;3.13;;;13.20;99.90;;;;;;6215540;23;20337;-57
2022/04/13 00:48:59;;;;;;;4.83;2.90;;;13.20;99.90;;;;;;6212697;23;20434;-58
2022/04/13 00:51:25;;;;;;;4.90;2.97;;;13.20;99.90;;;;;;6212128;23;20851;-58
2022/04/13 00:53:52;;;;;;;5.60;3.40;;;13.10;99.90;;;;;;6214409;23;20454;-57
2022/04/13 00:56:23;;;;;;;5.65;3.53;;;13.00;99.90;;;;;;6214168;23;20430;-58
2022/04/13 00:58:52;;;;;;;5.05;3.15;;;13.00;99.90;;;;;;6213377;23;20348;-58
2022/04/13 01:01:18;;;;;;;6.45;3.25;;;13.00;99.90;;;;;;6212700;23;20905;-57
2022/04/13 01:03:44;;;;;;;5.20;3.47;;;13.00;99.90;;;;;;6214367;23;20371;-54
2022/04/13 01:06:10;;;;;;;5.38;3.85;;;13.00;99.90;;;;;;6213823;23;20348;-56
2022/04/13 01:08:38;;;;;;;5.63;3.22;;;13.00;99.90;;;;;;6208988;23;20359;-58
2022/04/13 01:11:04;;;;;;;4.95;3.55;;;13.00;99.90;;;;;;6211396;23;20386;-58
2022/04/13 01:13:29;;;;;;;5.30;3.70;;;12.90;99.90;;;;;;6212875;23;20357;-57
2022/04/13 01:15:55;;;;;;;6.13;3.50;;;12.90;99.90;;;;;;6212978;23;20383;-58
2022/04/13 01:18:20;;;;;;;4.37;3.30;;;12.90;99.90;;;;;;6212381;23;20362;-58
2022/04/13 01:20:53;;;;;;;4.97;3.17;;;12.90;99.90;;;;;;6210022;23;20702;-57
2022/04/13 01:23:23;;;;;;;5.90;3.80;;;12.90;99.90;;;;;;6208206;23;20368;-57
2022/04/13 01:25:50;;;;;;;4.38;3.40;;;12.90;99.90;;;;;;6210202;23;20431;-55
2022/04/13 01:28:16;;;;;;;5.25;3.30;;;12.90;99.90;;;;;;6209991;23;20352;-58
2022/04/13 01:30:42;;;;;;;4.68;3.75;;;12.90;99.90;;;;;;6209428;23;20359;-57
2022/04/13 01:33:08;;;;;;;5.88;3.90;;;12.90;99.90;;;;;;6208124;23;20635;-54
2022/04/13 01:35:34;;;;;;;5.03;3.38;;;12.90;99.90;;;;;;6209585;23;20355;-57
2022/04/13 01:38:00;;;;;;;4.68;3.38;;;12.90;99.90;;;;;;6207338;23;20826;-58
2022/04/13 01:40:25;;;;;;;4.50;3.75;;;12.90;99.90;;;;;;6206963;23;20945;-59
2022/04/13 01:42:51;;;;;;;4.70;3.53;;;12.90;99.90;;;;;;6207065;23;20476;-57
2022/04/13 01:45:20;;;;;;;5.97;3.40;;;12.90;99.90;;;;;;6207385;23;20363;-56
2022/04/13 01:47:52;;;;;;;4.68;3.58;;;12.90;99.90;;;;;;6209135;23;20493;-53
2022/04/13 01:50:19;;;;;;;5.28;3.88;;;12.90;99.90;;;;;;6208845;23;20501;-52
2022/04/13 01:52:47;;;;;;;5.90;3.78;;;12.90;99.90;;;;;;6212922;23;20450;-58
2022/04/13 01:55:12;;;;;;;5.50;3.70;;;12.90;99.90;;;;;;6213751;23;20776;-58
2022/04/13 01:57:39;;;;;;;5.23;3.70;;;12.80;99.90;;;;;;6210280;23;20431;-56
2022/04/13 02:00:06;;;;;;;4.55;3.75;;;12.80;99.90;;;;;;6208107;23;20347;-59
2022/04/13 02:02:32;;;;;;;6.10;3.90;;;12.80;99.90;;;;;;6209435;23;20885;-56
2022/04/13 02:04:58;;;;;;;6.40;3.80;;;12.70;99.90;;;;;;6210602;23;20350;-57
2022/04/13 02:07:23;;;;;;;5.03;3.60;;;12.70;99.90;;;;;;6210841;23;20713;-54
2022/04/13 02:09:49;;;;;;;5.20;3.78;;;12.70;99.90;;;;;;6210272;23;20352;-57
2022/04/13 02:12:14;;;;;;;4.83;3.90;;;12.70;99.90;;;;;;6210152;23;20366;-58
2022/04/13 02:14:40;;;;;;;5.47;3.90;;;12.70;99.90;;;;;;6206497;23;20366;-57
2022/04/13 02:17:06;;;;;;;4.50;3.83;;;12.70;99.90;;;;;;6211858;23;20436;-58
2022/04/13 02:19:32;;;;;;;5.50;4.13;;;12.70;99.90;;;;;;6210616;23;20360;-56
2022/04/13 02:21:57;;;;;;;5.07;4.00;;;12.70;99.90;;;;;;6211031;23;20433;-56
2022/04/13 02:24:23;;;;;;;6.70;3.97;;;12.60;99.90;;;;;;6210299;23;20603;-56
2022/04/13 02:26:48;;;;;;;4.82;3.60;;;12.60;99.90;;;;;;6210499;23;20351;-58
2022/04/13 02:29:14;;;;;;;7.00;3.97;;;12.60;99.90;;;;;;6211569;23;20350;-57
2022/04/13 02:31:40;;;;;;;5.05;3.72;;;12.60;99.90;;;;;;6212577;23;20379;-58
2022/04/13 02:34:06;;;;;;;4.67;3.80;;;12.60;99.90;;;;;;6212740;23;20405;-56
2022/04/13 02:36:32;;;;;;;6.47;4.10;;;12.60;99.90;;;;;;6212154;23;20392;-56
2022/04/13 02:38:57;;;;;;;4.60;3.60;;;12.50;99.90;;;;;;6211949;23;20367;-53
2022/04/13 02:41:23;;;;;;;5.20;3.83;;;12.50;99.90;;;;;;6211518;23;20374;-55
2022/04/13 02:43:49;;;;;;;5.28;4.07;;;12.50;99.90;;;;;;6210154;23;20351;-57
2022/04/13 02:46:14;;;;;;;6.50;4.00;;;12.50;99.90;;;;;;6210925;23;20602;-58
2022/04/13 02:48:40;;;;;;;5.60;4.20;;;12.50;99.90;;;;;;6209344;23;20737;-59
2022/04/13 02:51:05;;;;;;;5.57;3.95;;;12.50;99.90;;;;;;6208696;23;20348;-57
2022/04/13 02:53:31;;;;;;;6.10;4.03;;;12.50;99.90;;;;;;6209520;23;20761;-58
2022/04/13 02:55:58;;;;;;;4.32;3.63;;;12.50;99.90;;;;;;6209061;23;20366;-57
2022/04/13 02:58:23;;;;;;;4.82;3.95;;;12.50;99.90;;;;;;6208471;23;20352;-56
2022/04/13 03:00:49;;;;;;;4.70;3.90;;;12.50;99.90;;;;;;6211237;23;20349;-56
2022/04/13 03:03:14;;;;;;;6.07;4.30;;;12.50;99.90;;;;;;6212095;23;20478;-58
2022/04/13 03:05:40;;;;;;;5.30;4.10;;;12.50;99.90;;;;;;6212069;23;20401;-58
2022/04/13 03:08:06;;;;;;;4.75;3.85;;;12.50;99.90;;;;;;6209711;23;20651;-58
2022/04/13 03:10:32;;;;;;;5.93;4.25;;;12.50;99.90;;;;;;6210781;23;20370;-58
2022/04/13 03:12:57;;;;;;;4.90;3.65;;;12.50;99.90;;;;;;6210486;23;20430;-59
2022/04/13 03:15:24;;;;;;;5.27;4.10;;;12.50;99.90;;;;;;6209712;23;20410;-58
2022/04/13 03:17:51;;;;;;;5.78;4.38;;;12.50;99.90;;;;;;6209022;23;20348;-56
2022/04/13 03:20:16;;;;;;;6.22;4.10;;;12.50;99.90;;;;;;6209316;23;20352;-55
2022/04/13 03:22:42;;;;;;;5.77;3.73;;;12.50;99.90;;;;;;6211937;23;20382;-58
2022/04/13 03:25:08;;;;;;;5.27;3.97;;;12.50;99.90;;;;;;6210989;23;20469;-56
2022/04/13 03:27:34;;;;;;;5.57;4.13;;;12.40;99.90;;;;;;6209889;23;20421;-58
2022/04/13 03:29:59;;;;;;;7.10;4.33;;;12.40;99.90;;;;;;6210800;23;20355;-57
2022/04/13 03:32:25;;;;;;;6.60;4.70;;;12.40;99.90;;;;;;6211464;23;20351;-57
2022/04/13 03:34:50;;;;;;;6.50;4.40;;;12.40;99.90;;;;;;6211260;23;20355;-58
2022/04/13 03:37:16;;;;;;;6.23;4.37;;;12.40;99.90;;;;;;6211720;23;20454;-58
2022/04/13 03:39:42;;;;;;;7.28;4.72;;;12.40;99.90;;;;;;6211904;23;20359;-58
2022/04/13 03:42:08;;;;;;;6.28;4.75;;;12.30;99.90;;;;;;6208530;23;20596;-56
2022/04/13 03:44:33;;;;;;;5.78;4.30;;;12.30;99.90;;;;;;6207446;23;20383;-55
2022/04/13 03:46:59;;;;;;;5.50;4.20;;;12.30;99.90;;;;;;6208212;23;20738;-58
2022/04/13 03:49:24;;;;;;;6.70;5.00;;;12.30;99.90;;;;;;6208520;23;20350;-58
2022/04/13 03:51:50;;;;;;;6.80;4.72;;;12.30;99.90;;;;;;6208509;23;20347;-58
2022/04/13 03:54:15;;;;;;;5.13;4.50;;;12.30;99.90;;;;;;6210093;23;20363;-54
2022/04/13 03:56:41;;;;;;;5.55;4.28;;;12.30;99.90;;;;;;6208473;23;20381;-56
2022/04/13 03:59:10;;;;;;;6.05;4.45;;;12.20;99.90;;;;;;6213441;23;20359;-56
2022/04/13 04:01:35;;;;;;;6.93;4.85;;;12.20;99.90;;;;;;6205822;23;20795;-57
2022/04/13 04:04:02;;;;;;;7.77;4.87;;;12.20;99.90;;;;;;6206857;23;20387;-56
2022/04/13 04:06:27;;;;;;;6.40;4.53;;;12.10;99.90;;;;;;6206920;23;20481;-58
2022/04/13 04:08:53;;;;;;;6.22;4.60;;;12.10;99.90;;;;;;6206649;23;20386;-56
2022/04/13 04:11:19;;;;;;;6.97;4.43;;;12.10;99.90;;;;;;6208282;23;20406;-58
2022/04/13 04:13:44;;;;;;;6.70;4.83;;;12.10;99.90;;;;;;6208028;23;20421;-57
2022/04/13 04:16:10;;;;;;;6.45;4.35;;;12.10;99.90;;;;;;6207061;23;20442;-54
2022/04/13 04:18:35;;;;;;;6.37;4.83;;;12.00;99.90;;;;;;6206863;23;20764;-57
2022/04/13 04:21:01;;;;;;;7.77;4.90;;;12.10;99.90;;;;;;6208166;23;20367;-53
2022/04/13 04:23:26;;;;;;;6.28;4.82;;;12.10;99.90;;;;;;6206640;23;20368;-58
2022/04/13 04:25:52;;;;;;;6.20;4.73;;;12.00;99.90;;;;;;6206784;23;20700;-58
2022/04/13 04:28:18;;;;;;;8.07;4.97;;;12.00;99.90;;;;;;6205117;23;20842;-58
2022/04/13 04:30:44;;;;;;;5.57;4.70;;;12.00;99.90;;;;;;6205499;23;20708;-58
2022/04/13 04:33:14;;;;;;;8.13;5.10;;;12.00;99.90;;;;;;6207885;23;20343;-58
2022/04/13 04:35:40;;;;;;;5.78;4.53;;;11.90;99.90;;;;;;6207094;23;20348;-58
2022/04/13 04:38:05;;;;;;;7.37;4.67;;;11.90;99.90;;;;;;6205641;23;20433;-58
2022/04/13 04:40:31;;;;;;;5.72;4.85;;;11.90;99.90;;;;;;6208086;23;20635;-56
2022/04/13 04:42:58;;;;;;;6.33;4.70;;;11.90;99.90;;;;;;6204773;23;20367;-55
2022/04/13 04:45:24;;;;;;;6.68;5.00;;;11.80;99.90;;;;;;6204632;23;20355;-56
2022/04/13 04:47:50;;;;;;;10.20;4.60;;;11.80;99.90;;;;;;6204757;23;20425;-58
2022/04/13 04:50:17;;;;;;;8.18;5.25;;;11.80;99.90;;;;;;6207525;23;20614;-56
2022/04/13 04:52:44;;;;;;;5.85;4.60;;;11.80;99.90;;;;;;6205772;23;20352;-58
2022/04/13 04:55:11;;;;;;;8.95;5.50;;;11.80;99.90;;;;;;6205192;23;20885;-57
2022/04/13 04:57:37;;;;;;;6.15;4.80;;;11.70;99.90;;;;;;6204442;23;20405;-56
2022/04/13 05:00:08;;;;;;;6.75;5.10;;;11.70;99.90;;;;;;6202475;23;20355;-58
2022/04/13 05:02:35;;;;;;;7.20;5.40;;;11.80;99.90;;;;;;6202297;23;20752;-55
2022/04/13 05:05:01;;;;;;;8.38;5.40;;;11.70;99.90;;;;;;6203794;23;20515;-58
2022/04/13 05:07:27;;;;;;;8.63;5.30;;;11.70;99.90;;;;;;6202873;23;20358;-55
2022/04/13 05:09:52;;;;;;;7.33;5.10;;;11.70;99.90;;;;;;6203794;23;20359;-58
2022/04/13 05:12:18;;;;;;;7.73;5.60;;;11.70;99.90;;;;;;6203389;23;20363;-56
2022/04/13 05:14:43;;;;;;;8.32;5.47;;;11.60;99.90;;;;;;6202035;23;20348;-56
2022/04/13 05:17:09;;;;;;;6.77;5.53;;;11.60;99.90;;;;;;6204285;23;20446;-55
2022/04/13 05:19:35;;;;;;;7.57;5.20;;;11.60;99.90;;;;;;6204898;23;20439;-56
2022/04/13 05:22:00;;;;;;;9.77;5.68;;;11.60;99.90;;;;;;6204400;23;20379;-56
2022/04/13 05:24:26;;;;;;;11.98;6.05;;;11.60;99.90;;;;;;6204490;23;20739;-56
2022/04/13 05:26:51;;;;;;;10.97;5.77;;;11.50;99.90;;;;;;6204517;23;20348;-56
2022/04/13 05:29:17;;;;;;;7.63;5.67;;;11.60;99.90;;;;;;6203517;23;20344;-56
2022/04/13 05:31:42;;;;;;;8.85;5.85;;;11.60;99.90;;;;;;6203167;23;20742;-57
2022/04/13 05:34:08;;;;;;;8.27;5.73;;;11.70;99.90;;;;;;6203358;23;20814;-56
2022/04/13 05:36:34;;;;;;;8.33;5.40;;;11.60;99.90;;;;;;6202622;23;20418;-56
2022/04/13 05:39:00;;;;;;;9.13;5.30;;;11.70;99.90;;;;;;6200205;23;20858;-55
2022/04/13 05:41:26;;;;;;;8.03;5.63;;;11.70;99.90;;;;;;6198805;23;20925;-56
2022/04/13 05:43:51;;;;;;;7.00;5.50;;;11.60;99.90;;;;;;6202150;23;20632;-58
2022/04/13 05:46:17;;;;;;;8.13;5.47;;;11.70;99.90;;;;;;6199154;23;20434;-58
2022/04/13 05:48:43;;;;;;;8.45;5.40;;;11.60;99.90;;;;;;6197590;23;20350;-57
2022/04/13 05:51:09;;;;;;;6.60;5.30;;;11.60;99.90;;;;;;6198148;23;20510;-56
2022/04/13 05:53:35;;;;;;;9.32;5.75;;;11.70;99.90;;;;;;6201272;23;20363;-57
2022/04/13 05:56:01;;;;;;;9.82;5.75;;;11.70;99.90;;;;;;6202132;23;20756;-58
2022/04/13 05:58:27;;;;;;;7.85;5.57;;;11.50;99.90;;;;;;6200737;23;20351;-54
2022/04/13 06:00:54;;;;;;;8.30;5.60;;;11.60;99.90;;;;;;6198622;23;20355;-55
2022/04/13 06:03:20;;;;;;;7.47;5.63;;;11.60;99.90;;;;;;6197471;23;20682;-55
2022/04/13 06:05:46;;;;;;;8.77;5.75;;;11.60;99.90;;;;;;6198448;23;20355;-55
2022/04/13 06:08:12;;;;;;;7.28;5.53;;;11.70;99.90;;;;;;6196896;23;20410;-56
2022/04/13 06:10:38;;;;;;;7.85;5.57;;;11.70;99.90;;;;;;6195386;23;20563;-55
2022/04/13 06:13:03;;;;;;;10.67;6.03;;;11.80;99.90;;;;;;6193993;23;20383;-56
2022/04/13 06:15:29;;;;;;;8.23;5.70;;;11.70;99.90;;;;;;6195102;23;20543;-56
2022/04/13 06:17:55;;;;;;;8.20;6.15;;;11.80;99.90;;;;;;6193105;23;20560;-53
2022/04/13 06:20:20;;;;;;;7.78;5.80;;;11.80;99.90;;;;;;6197221;23;20449;-53
2022/04/13 06:22:46;;;;;;;8.10;5.97;;;11.80;99.90;;;;;;6195352;23;20466;-54
2022/04/13 06:25:12;;;;;;;6.77;5.83;;;11.80;99.90;;;;;;6196456;23;20359;-57
2022/04/13 06:27:40;;;;;;;8.73;6.32;;;11.80;99.90;;;;;;6197854;23;20608;-56
2022/04/13 06:30:07;;;;;;;10.60;6.05;;;11.80;99.90;;;;;;6196386;23;20677;-57
2022/04/13 06:32:33;;;;;;;9.25;6.05;;;11.90;99.90;;;;;;6195752;23;20351;-55
2022/04/13 06:35:00;;;;;;;7.70;6.03;;;11.90;99.90;;;;;;6196961;23;20363;-58
2022/04/13 06:37:26;;;;;;;8.20;5.97;;;12.00;99.90;;;;;;6198050;23;20770;-58
2022/04/13 06:39:52;;;;;;;8.68;6.18;;;12.00;99.90;;;;;;6196029;23;20399;-54
2022/04/13 06:42:17;;;;;;;9.52;6.32;;;11.90;99.90;;;;;;6194242;23;20383;-56
2022/04/13 06:44:43;;;;;;;10.53;6.17;;;11.90;99.90;;;;;;6195522;23;20359;-53
2022/04/13 06:47:08;;;;;;;8.07;6.40;;;11.90;99.90;;;;;;6195369;23;20394;-58
2022/04/13 06:49:34;;;;;;;8.77;5.87;;;11.90;99.90;;;;;;6197347;23;20347;-54
2022/04/13 06:51:59;;;;;;;9.13;6.70;;;12.10;99.90;;;;;;6196543;23;20955;-56
2022/04/13 06:54:27;;;;;;;10.27;6.37;;;12.10;99.90;;;;;;6194778;23;20789;-58
2022/04/13 06:56:53;;;;;;;9.90;6.47;;;12.00;99.90;;;;;;6195098;23;20414;-57
2022/04/13 06:59:18;;;;;;;7.90;6.28;;;12.10;99.90;;;;;;6198816;23;20355;-57
2022/04/13 07:01:44;;;;;;;9.90;6.27;;;12.10;99.90;;;;;;6198466;23;20372;-58
2022/04/13 07:04:09;;;;;;;8.63;6.40;;;12.10;99.90;;;;;;6197855;23;20675;-56
2022/04/13 07:06:35;;;;;;;9.33;6.43;;;12.10;99.90;;;;;;6197529;23;20562;-57
2022/04/13 07:09:00;;;;;;;8.57;5.87;;;12.30;99.90;;;;;;6199493;23;20620;-58
2022/04/13 07:11:26;;;;;;;10.50;6.37;;;12.20;99.90;;;;;;6199803;23;20355;-59
2022/04/13 07:13:51;;;;;;;9.33;7.07;;;12.30;99.90;;;;;;6202351;23;20351;-58
2022/04/13 07:16:18;;;;;;;8.98;5.97;;;12.30;99.90;;;;;;6202318;23;20892;-58
2022/04/13 07:18:45;;;;;;;9.93;6.43;;;12.40;99.90;;;;;;6207856;23;20459;-58
2022/04/13 07:21:12;;;;;;;7.90;5.30;;;12.40;99.90;;;;;;6208350;23;20429;-59
2022/04/13 07:23:37;;;;;;;11.13;6.82;;;12.50;99.90;;;;;;6206781;23;20374;-58
2022/04/13 07:26:04;;;;;;;8.23;6.70;;;12.60;99.90;;;;;;6207408;23;20352;-56
2022/04/13 07:28:31;;;;;;;8.63;6.63;;;12.50;99.90;;;;;;6206970;23;20350;-58
2022/04/13 07:30:57;;;;;;;9.18;6.90;;;12.40;99.90;;;;;;6208484;23;20359;-58
2022/04/13 07:33:24;;;;;;;11.30;7.35;;;12.40;99.90;;;;;;6209198;23;20347;-58
2022/04/13 07:35:52;;;;;;;10.77;7.07;;;12.30;99.90;;;;;;6209352;23;20359;-58
2022/04/13 07:38:19;;;;;;;10.85;6.72;;;12.40;99.90;;;;;;6207676;23;20442;-55
2022/04/13 07:40:45;;;;;;;12.90;7.88;;;12.40;99.90;;;;;;6207571;23;20348;-57
2022/04/13 07:43:12;;;;;;;9.40;7.60;;;12.40;99.90;;;;;;6206798;23;20366;-54
2022/04/13 07:45:39;;;;;;;9.25;6.53;;;12.50;99.90;;;;;;6203925;23;20380;-56
2022/04/13 07:48:05;;;;;;;11.60;7.55;;;12.60;99.90;;;;;;6203357;23;20352;-55
2022/04/13 07:50:31;;;;;;;10.80;7.13;;;12.50;99.90;;;;;;6204642;23;20661;-57
2022/04/13 07:52:57;;;;;;;8.85;7.00;;;12.50;99.90;;;;;;6203889;23;20916;-57
2022/04/13 07:55:23;;;;;;;8.10;6.47;;;12.60;99.90;;;;;;6204898;23;20887;-58
2022/04/13 07:57:48;;;;;;;10.80;6.97;;;12.60;99.90;;;;;;6203501;23;20355;-59
2022/04/13 08:00:14;;;;;;;9.97;6.97;;;12.70;99.90;;;;;;6197727;23;20418;-59
2022/04/13 08:02:41;;;;;;;11.00;6.78;;;12.90;99.90;;;;;;6198286;23;20390;-57
2022/04/13 08:05:07;;;;;;;12.85;7.57;;;12.90;99.90;;;;;;6196662;23;20929;-58
2022/04/13 08:07:34;;;;;;;10.02;6.82;;;12.90;99.90;;;;;;6198951;23;20352;-55
2022/04/13 08:09:59;;;;;;;9.15;6.35;;;13.00;99.90;;;;;;6199758;23;20340;-58
2022/04/13 08:12:29;;;;;;;9.75;7.00;;;13.20;99.90;;;;;;6201044;23;20352;-59
2022/04/13 08:14:56;;;;;;;13.40;7.78;;;13.20;99.90;;;;;;6200021;23;20461;-56
2022/04/13 08:17:24;;;;;;;12.33;7.40;;;13.30;99.90;;;;;;6201132;23;20359;-56
2022/04/13 08:19:49;;;;;;;11.88;8.10;;;13.20;99.90;;;;;;6200463;23;20347;-55
2022/04/13 08:22:17;;;;;;;10.47;6.93;;;13.30;99.90;;;;;;6198188;23;20363;-57
2022/04/13 08:24:43;;;;;;;10.80;7.30;;;13.30;99.90;;;;;;6198887;23;20343;-53
2022/04/13 08:27:10;;;;;;;10.80;6.40;;;13.40;99.90;;;;;;6204894;23;20488;-53
2022/04/13 08:29:35;;;;;;;9.93;7.00;;;13.50;99.90;;;;;;6203802;23;20520;-58
2022/04/13 08:32:02;;;;;;;9.15;6.35;;;13.70;99.90;;;;;;6205524;23;20421;-58
2022/04/13 08:34:27;;;;;;;10.45;7.05;;;13.80;99.90;;;;;;6204759;23;20446;-54
2022/04/13 08:36:53;;;;;;;15.10;7.60;;;13.90;99.90;;;;;;6203418;23;20398;-57
2022/04/13 08:39:18;;;;;;;11.33;7.60;;;13.90;99.90;;;;;;6203587;23;20347;-57
2022/04/13 08:41:58;;;;;;;8.98;7.00;;;13.80;99.90;;;;;;6200035;23;20538;-58
2022/04/13 08:44:46;;;;;;;9.57;6.97;;;13.90;99.90;;;;;;6201566;23;20421;-58
2022/04/13 08:47:15;;;;;;;9.77;7.20;;;14.00;99.90;;;;;;6201892;23;20496;-57
2022/04/13 08:49:43;;;;;;;9.85;7.57;;;13.80;99.90;;;;;;6200000;23;20348;-56
2022/04/13 08:52:09;;;;;;;13.75;7.32;;;13.70;99.90;;;;;;6198500;23;20519;-58
2022/04/13 08:54:51;;;;;;;10.73;7.55;;;13.70;99.90;;;;;;6200503;23;20737;-55
2022/04/13 08:57:21;;;;;;;11.55;7.07;;;13.80;99.90;;;;;;6199832;23;20534;-56
2022/04/13 09:00:04;;;;;;;10.38;6.60;;;13.90;99.90;;;;;;6196136;23;20356;-57
2022/04/13 09:02:45;;;;;;;11.52;7.90;;;14.00;99.90;;;;;;6194860;23;20383;-56
2022/04/13 09:05:14;;;;;;;8.00;6.27;;;14.10;99.90;;;;;;6196019;23;20517;-55
2022/04/13 09:07:41;;;;;;;11.85;6.68;;;14.20;99.90;;;;;;6196481;23;20629;-57
2022/04/13 09:10:12;;;;;;;7.35;6.22;;;14.40;99.90;;;;;;6170142;23;20727;-58
2022/04/13 09:12:39;;;;;;;12.00;7.10;;;14.50;99.90;;;;;;6194596;23;20362;-58
2022/04/13 09:15:06;;;;;;;12.25;7.93;;;14.70;99.90;;;;;;6192954;23;20362;-58
2022/04/13 09:17:32;;;;;;;11.87;8.03;;;14.70;99.90;;;;;;6193871;23;20375;-54
2022/04/13 09:19:58;;;;;;;8.80;7.30;;;14.80;99.90;;;;;;6194601;23;20347;-53
2022/04/13 09:22:25;;;;;;;12.52;7.10;;;14.80;99.90;;;;;;6196346;23;20925;-55
2022/04/13 09:24:51;;;;;;;9.68;7.40;;;14.80;99.90;;;;;;6195707;23;20355;-54
2022/04/13 09:27:18;;;;;;;9.30;6.88;;;14.90;99.90;;;;;;6195896;23;20576;-57
2022/04/13 09:29:44;;;;;;;10.35;7.38;;;15.00;99.90;;;;;;6199797;23;20406;-57
2022/04/13 09:32:10;;;;;;;8.90;6.57;;;15.00;99.90;;;;;;6202016;23;20368;-57
2022/04/13 09:34:36;;;;;;;10.80;7.53;;;15.10;99.90;;;;;;6203369;23;20399;-57
2022/04/13 09:37:01;;;;;;;11.43;7.22;;;15.10;99.90;;;;;;6204927;23;20356;-57
2022/04/13 09:39:27;;;;;;;11.63;7.20;;;15.20;99.90;;;;;;6205442;23;20356;-58
2022/04/13 09:41:53;;;;;;;13.77;7.67;;;15.30;99.90;;;;;;6208897;23;20367;-59
2022/04/13 09:44:19;;;;;;;9.95;7.25;;;15.10;99.90;;;;;;6210897;23;20831;-59
2022/04/13 09:46:45;;;;;;;7.93;6.88;;;15.20;99.90;;;;;;6210364;23;20834;-59
2022/04/13 09:49:12;;;;;;;10.07;7.28;;;15.30;99.90;;;;;;6211109;23;20441;-57
2022/04/13 09:51:43;;;;;;;13.48;7.40;;;15.40;99.90;;;;;;6208717;23;20380;-59
2022/04/13 09:54:11;;;;;;;10.03;7.60;;;15.50;99.90;;;;;;6206875;23;20807;-58
2022/04/13 09:56:38;;;;;;;12.93;7.90;;;15.50;99.90;;;;;;6206901;23;20450;-59
2022/04/13 09:59:07;;;;;;;10.52;7.70;;;15.60;99.90;;;;;;6208833;23;20358;-59
2022/04/13 10:01:34;;;;;;;10.77;6.90;;;15.70;99.90;;;;;;6210452;23;20712;-57
2022/04/13 10:04:03;;;;;;;10.55;8.32;;;15.90;99.90;;;;;;6208099;23;20364;-57
2022/04/13 10:06:30;;;;;;;11.52;8.65;;;15.90;99.90;;;;;;6211048;23;20348;-59
2022/04/13 10:09:08;;;;;;;9.45;7.65;;;15.90;99.90;;;;;;6210174;23;20413;-58
2022/04/13 10:11:34;;;;;;;13.52;9.18;;;16.00;99.90;;;;;;6207281;23;20356;-59
2022/04/13 10:14:05;;;;;;;10.80;7.75;;;16.10;99.90;;;;;;6202873;23;20360;-57
2022/04/13 10:16:33;;;;;;;11.68;8.02;;;16.10;99.90;;;;;;6205167;23;20359;-60
2022/04/13 10:19:03;;;;;;;10.73;7.20;;;16.20;99.90;;;;;;6206136;23;20661;-60
2022/04/13 10:21:43;;;;;;;11.95;8.30;;;16.30;99.90;;;;;;6204575;23;20370;-60
2022/04/13 10:24:28;;;;;;;13.05;8.27;;;16.40;99.90;;;;;;6203137;23;20587;-59
2022/04/13 10:27:02;;;;;;;9.00;6.80;;;16.50;99.90;;;;;;6203161;23;20387;-60
2022/04/13 10:29:28;;;;;;;9.80;6.80;;;16.60;99.90;;;;;;6204377;23;20671;-60
2022/04/13 10:32:15;;;;;;;8.43;6.63;;;16.70;99.90;;;;;;6202972;23;20753;-58
2022/04/13 10:34:45;;;;;;;11.57;8.25;;;16.90;99.90;;;;;;6203440;23;20367;-64
2022/04/13 10:37:13;;;;;;;10.30;7.60;;;16.90;99.90;;;;;;6203388;23;20360;-56
2022/04/13 10:39:41;;;;;;;8.38;6.45;;;16.90;99.90;;;;;;6203432;23;20351;-59
2022/04/13 10:42:10;;;;;;;9.57;7.07;;;17.00;99.90;;;;;;6202494;23;20670;-57
2022/04/13 10:44:43;;;;;;;12.93;8.35;;;17.10;99.90;;;;;;6205947;23;20352;-59
2022/04/13 10:47:16;;;;;;;12.32;8.73;;;17.10;99.90;;;;;;6203237;23;20363;-60
2022/04/13 10:49:54;;;;;;;11.97;8.53;;;17.10;99.90;;;;;;6199490;23;20737;-59
2022/04/13 10:52:27;;;;;;;11.93;8.57;;;17.10;99.90;;;;;;6199340;23;20417;-58
2022/04/13 10:55:04;;;;;;;11.17;8.10;;;17.20;99.90;;;;;;6197142;23;20432;-59
2022/04/13 10:57:45;;;;;;;12.07;8.57;;;17.40;99.90;;;;;;6199595;23;20369;-59
2022/04/13 11:00:14;;;;;;;9.13;7.40;;;17.40;99.90;;;;;;6200598;23;20445;-57
2022/04/13 11:02:51;;;;;;;17.92;9.05;;;17.60;99.90;;;;;;6201991;23;20395;-58
2022/04/13 11:05:17;;;;;;;10.20;8.63;;;17.80;99.90;;;;;;6201687;23;20917;-59
2022/04/13 11:07:44;;;;;;;14.70;9.75;;;18.00;99.90;;;;;;6200559;23;20647;-58
2022/04/13 11:10:16;;;;;;;18.07;9.30;;;18.10;99.90;;;;;;6200985;23;20344;-57
2022/04/13 11:12:43;;;;;;;14.95;9.10;;;18.20;99.90;;;;;;6198608;23;20495;-57
2022/04/13 11:15:09;;;;;;;13.50;8.50;;;18.30;99.90;;;;;;6202391;23;20405;-57
2022/04/13 11:17:41;;;;;;;13.30;9.27;;;18.60;99.90;;;;;;6204859;23;20356;-58
2022/04/13 11:20:18;;;;;;;13.10;9.13;;;18.70;99.90;;;;;;6201270;23;20356;-59
2022/04/13 11:22:44;;;;;;;13.60;9.38;;;18.80;99.90;;;;;;6201486;23;20370;-57
2022/04/13 11:25:10;;;;;;;16.67;9.98;;;18.90;99.90;;;;;;6200225;23;20354;-60
2022/04/13 11:27:52;;;;;;;12.98;8.63;;;18.80;99.90;;;;;;6200490;23;20406;-59
2022/04/13 11:30:18;;;;;;;15.73;9.30;;;19.20;99.90;;;;;;6208433;23;20387;-56
2022/04/13 11:32:45;;;;;;;17.60;10.23;;;19.20;99.90;;;;;;6210308;23;20371;-57
2022/04/13 11:35:25;;;;;;;13.88;9.57;;;19.30;99.90;;;;;;6212054;23;20607;-57
2022/04/13 11:38:08;;;;;;;13.98;9.13;;;19.40;99.90;;;;;;6212041;23;20379;-56
2022/04/13 11:40:33;;;;;;;17.03;10.23;;;19.40;99.90;;;;;;6210119;23;20363;-59
2022/04/13 11:43:02;;;;;;;25.63;11.80;;;19.50;99.90;;;;;;6210277;23;20368;-59
2022/04/13 11:45:27;;;;;;;15.73;10.45;;;19.40;99.90;;;;;;6213203;23;20347;-60
2022/04/13 11:47:58;;;;;;;21.00;12.40;;;19.50;99.90;;;;;;6208468;23;20446;-60
2022/04/13 11:50:33;;;;;;;18.25;11.00;;;19.60;99.90;;;;;;6207492;23;20347;-60
2022/04/13 11:53:06;;;;;;;27.10;14.70;;;19.80;99.90;;;;;;6206971;23;20348;-59
2022/04/13 11:55:40;;;;;;;24.83;13.90;;;19.80;99.90;;;;;;6208913;23;20438;-59
2022/04/13 11:58:09;;;;;;;20.73;12.38;;;20.10;99.90;;;;;;6210272;23;20343;-60
2022/04/13 12:00:39;;;;;;;16.50;10.27;;;20.50;99.90;;;;;;6209820;23;20356;-57
2022/04/13 12:03:11;;;;;;;11.73;8.57;;;20.80;99.90;;;;;;6208636;23;20511;-60
2022/04/13 12:05:46;;;;;;;19.30;11.23;;;21.10;99.90;;;;;;6208017;23;20414;-60
2022/04/13 12:08:17;;;;;;;22.52;12.88;;;21.10;99.90;;;;;;6210338;23;20340;-59
2022/04/13 12:10:53;;;;;;;20.73;13.38;;;21.30;99.90;;;;;;6208955;23;20799;-56
2022/04/13 12:13:19;;;;;;;25.13;13.95;;;21.00;99.90;;;;;;6209692;23;20737;-60
2022/04/13 12:15:52;;;;;;;21.63;12.43;;;20.80;99.90;;;;;;6206209;23;20378;-58
2022/04/13 12:18:23;;;;;;;20.75;11.52;;;20.70;99.90;;;;;;6204716;23;20351;-59
2022/04/13 12:20:49;;;;;;;14.77;9.70;;;21.10;99.90;;;;;;6202288;23;20348;-57
2022/04/13 12:23:23;;;;;;;22.40;12.50;;;21.50;99.90;;;;;;6201887;23;20371;-59
2022/04/13 12:25:54;;;;;;;22.33;12.90;;;21.60;99.90;;;;;;6201242;23;20340;-59
2022/04/13 12:28:22;;;;;;;21.27;12.20;;;21.60;99.90;;;;;;6204301;23;20354;-59
2022/04/13 12:31:10;;;;;;;14.17;9.53;;;21.60;99.90;;;;;;6206334;23;20774;-59
2022/04/13 12:33:38;;;;;;;19.77;12.18;;;22.00;99.90;;;;;;6208675;23;20343;-59
2022/04/13 12:36:10;;;;;;;23.70;12.25;;;22.00;99.90;;;;;;6209897;23;20355;-59
2022/04/13 12:38:46;;;;;;;19.77;10.55;;;21.90;99.90;;;;;;6208110;23;20621;-60
2022/04/13 12:41:17;;;;;;;17.88;11.07;;;22.10;99.90;;;;;;6210533;23;20407;-60
2022/04/13 12:44:04;;;;;;;22.90;15.77;;;22.40;99.90;;;;;;6208838;23;20351;-60